Terminal Aerodrome Forecast
Issued by NWS

Home | Current Version | Previous Version | Text Only | Print | Product List | Glossary On
Versions: 1 2 3 4 5 6 7 8 9 10 11 12 13 14 15 16 17 18 19 20 21 22 23
000
FTUS45 KBOU 171141
TAFBJC
TAF
KBJC 171141Z 1712/1812 VRB05KT P6SM SKC
     FM171600 10006KT P6SM SCT100 SCT150
     FM172000 13009KT P6SM VCTS SCT060CB BKN100
      TEMPO 1721/1723 VRB25G35KT
     FM180100 17009KT P6SM FEW060 SCT100
     FM181000 24010KT P6SM FEW120 SCT180=

USA.gov is the U.S. government's official web portal to all federal, state and local government web resources and services.